createdAt,value
2017-12-24T00:00:29.983Z,9.47
2017-12-24T00:01:31.591Z,9.37
2017-12-24T00:02:32.887Z,9.57
2017-12-24T00:03:34.208Z,9.33
2017-12-24T00:04:35.513Z,9.93
2017-12-24T00:05:36.809Z,10.60
2017-12-24T00:06:39.219Z,9.70
2017-12-24T00:07:40.515Z,9.20
2017-12-24T00:08:42.563Z,10.40
2017-12-24T00:09:44.620Z,10.35
2017-12-24T00:10:46.671Z,9.70
2017-12-24T00:11:49.072Z,10.43
2017-12-24T00:12:50.383Z,10.73
2017-12-24T00:13:51.680Z,10.00
2017-12-24T00:14:53.018Z,10.83
2017-12-24T00:15:54.323Z,10.40
2017-12-24T00:16:55.963Z,10.37
2017-12-24T00:17:57.261Z,11.53
2017-12-24T00:18:59.292Z,11.23
2017-12-24T00:20:00.634Z,10.53
2017-12-24T00:21:01.943Z,12.23
2017-12-24T00:22:03.516Z,11.43
2017-12-24T00:23:04.827Z,10.03
2017-12-24T00:24:06.863Z,10.50
2017-12-24T00:25:08.197Z,10.00
2017-12-24T00:26:09.504Z,10.17
2017-12-24T00:27:11.913Z,9.50
2017-12-24T00:28:13.221Z,11.18
2017-12-24T00:29:14.581Z,11.23
2017-12-24T00:43:16.724Z,9.07
2017-12-24T00:44:18.048Z,9.60
2017-12-24T00:45:19.355Z,10.57
2017-12-24T00:46:20.667Z,10.97
2017-12-24T00:47:21.991Z,11.17
2017-12-24T00:48:23.601Z,11.13
2017-12-24T00:49:24.912Z,11.27
2017-12-24T00:50:26.206Z,11.43
2017-12-24T00:51:27.516Z,12.67
2017-12-24T00:52:28.804Z,10.50
2017-12-24T00:53:31.159Z,11.17
2017-12-24T00:54:33.203Z,10.80
2017-12-24T00:55:34.486Z,10.80
2017-12-24T00:56:35.783Z,11.00
2017-12-24T00:57:37.094Z,11.40
2017-12-24T00:58:38.671Z,11.03
2017-12-24T00:59:40.724Z,11.00
2017-12-24T01:00:42.801Z,10.80
2017-12-24T01:01:44.109Z,10.63
2017-12-24T01:02:46.181Z,11.03
2017-12-24T01:03:48.266Z,10.80
2017-12-24T01:04:49.589Z,10.37
2017-12-24T01:05:50.903Z,11.47
2017-12-24T01:06:52.215Z,11.43
2017-12-24T01:07:53.504Z,12.23
2017-12-24T01:08:55.112Z,11.30
2017-12-24T01:09:57.188Z,11.93
2017-12-24T01:10:58.515Z,12.23
2017-12-24T01:11:59.823Z,11.93
2017-12-24T01:13:01.163Z,11.37
2017-12-24T01:14:02.567Z,11.17
2017-12-24T01:15:03.868Z,10.87
2017-12-24T01:16:05.154Z,12.70
2017-12-24T01:17:06.459Z,12.27
2017-12-24T01:18:07.764Z,11.43
2017-12-24T01:19:10.080Z,11.13
2017-12-24T01:20:11.394Z,12.80
2017-12-24T01:21:12.706Z,12.00
2017-12-24T01:22:14.747Z,12.57
2017-12-24T01:23:16.803Z,13.70
2017-12-24T01:24:19.120Z,13.00
2017-12-24T01:25:20.415Z,13.00
2017-12-24T01:26:22.459Z,12.13
2017-12-24T01:27:24.520Z,13.53
2017-12-24T01:28:26.572Z,12.97
2017-12-24T01:29:28.928Z,14.90
2017-12-24T01:30:30.976Z,12.80
2017-12-24T01:31:33.026Z,13.80
2017-12-24T01:32:34.336Z,12.40
2017-12-24T01:33:35.639Z,13.50
2017-12-24T01:34:37.219Z,11.70
2017-12-24T01:35:38.551Z,11.60
2017-12-24T01:36:39.863Z,11.53
2017-12-24T01:37:41.967Z,11.80
2017-12-24T01:38:43.270Z,12.07
2017-12-24T01:39:44.899Z,10.70
2017-12-24T01:40:46.208Z,11.47
2017-12-24T01:41:48.261Z,10.83
2017-12-24T01:42:50.295Z,10.17
2017-12-24T01:43:51.639Z,10.30
2017-12-24T01:44:53.963Z,10.47
2017-12-24T01:45:55.279Z,11.27
2017-12-24T01:46:56.611Z,10.33
2017-12-24T01:47:57.916Z,10.90
2017-12-24T01:48:59.959Z,11.07
2017-12-24T01:50:08.590Z,9.57
2017-12-24T01:51:09.879Z,9.50
2017-12-24T01:52:11.191Z,9.40
2017-12-24T01:53:12.505Z,10.00
2017-12-24T01:54:13.832Z,9.13
2017-12-24T01:55:16.187Z,9.60
2017-12-24T01:56:18.244Z,9.30
2017-12-24T01:57:20.292Z,9.03
2017-12-24T01:58:22.352Z,9.77
2017-12-24T01:59:24.424Z,9.00
2017-12-24T02:00:25.999Z,10.00
2017-12-24T02:01:27.290Z,9.10
2017-12-24T02:02:29.343Z,9.07
2017-12-24T02:03:31.412Z,10.03
2017-12-24T02:04:32.715Z,11.03
2017-12-24T02:05:34.279Z,9.93
2017-12-24T02:06:36.320Z,10.73
2017-12-24T02:07:38.356Z,9.50
2017-12-24T02:08:39.666Z,10.10
2017-12-24T02:09:40.974Z,9.45
2017-12-24T02:10:42.531Z,9.80
2017-12-24T02:11:43.844Z,10.03
2017-12-24T02:12:45.154Z,9.63
2017-12-24T02:13:46.464Z,10.07
2017-12-24T02:14:47.766Z,9.60
2017-12-24T02:15:49.379Z,9.80
2017-12-24T02:16:51.424Z,9.60
2017-12-24T02:17:52.728Z,9.60
2017-12-24T02:18:54.036Z,8.77
2017-12-24T02:19:55.375Z,9.40
2017-12-24T02:20:56.959Z,9.27
2017-12-24T02:21:58.276Z,9.27
2017-12-24T02:22:59.615Z,9.37
2017-12-24T02:24:00.932Z,8.93
2017-12-24T02:25:02.256Z,9.87
2017-12-24T02:26:03.949Z,8.90
2017-12-24T02:27:05.246Z,9.07
2017-12-24T02:28:06.573Z,9.17
2017-12-24T02:29:07.880Z,9.40
2017-12-24T02:30:09.196Z,10.43
2017-12-24T02:31:10.736Z,10.40
2017-12-24T02:32:12.080Z,10.50
2017-12-24T02:33:13.368Z,11.03
2017-12-24T02:34:14.694Z,11.40
2017-12-24T02:35:15.992Z,10.77
2017-12-24T02:36:17.600Z,10.73
2017-12-24T02:37:18.915Z,11.53
2017-12-24T02:38:20.204Z,12.03
2017-12-24T02:39:21.510Z,12.23
2017-12-24T02:40:22.856Z,12.07
2017-12-24T02:41:24.444Z,13.97
2017-12-24T02:42:26.496Z,12.43
2017-12-24T02:43:27.808Z,13.00
2017-12-24T02:44:29.139Z,13.47
2017-12-24T02:45:30.480Z,13.07
2017-12-24T02:46:32.060Z,14.43
2017-12-24T02:47:34.102Z,13.57
2017-12-24T02:48:35.404Z,13.33
2017-12-24T02:49:36.712Z,14.53
2017-12-24T02:50:38.022Z,13.80
2017-12-24T02:51:40.346Z,13.07
2017-12-24T02:52:41.632Z,14.90
2017-12-24T02:53:42.947Z,13.17
2017-12-24T02:54:44.287Z,13.20
2017-12-24T02:55:46.307Z,13.87
2017-12-24T02:56:47.887Z,14.27
2017-12-24T02:57:49.956Z,13.27
2017-12-24T02:58:51.288Z,14.43
2017-12-24T02:59:53.339Z,13.80
2017-12-24T03:00:55.372Z,13.20
2017-12-24T03:01:56.723Z,15.17
2017-12-24T03:02:58.810Z,14.27
2017-12-24T03:04:00.120Z,14.50
2017-12-24T03:05:02.164Z,15.50
2017-12-24T03:06:04.198Z,14.97
2017-12-24T03:07:05.817Z,14.17
2017-12-24T03:08:07.100Z,13.77
2017-12-24T03:09:09.140Z,14.97
2017-12-24T03:10:10.443Z,16.90
2017-12-24T03:11:11.752Z,15.73
2017-12-24T03:12:13.317Z,16.60
2017-12-24T03:13:14.660Z,14.13
2017-12-24T03:14:15.980Z,14.87
2017-12-24T03:15:17.288Z,13.97
2017-12-24T03:16:19.333Z,14.60
2017-12-24T03:17:20.904Z,15.73
2017-12-24T03:18:22.208Z,14.87
2017-12-24T03:19:23.504Z,13.10
2017-12-24T03:20:24.812Z,13.60
2017-12-24T03:21:26.118Z,13.57
2017-12-24T03:22:27.430Z,14.37
2017-12-24T03:23:28.788Z,14.30
2017-12-24T03:24:30.092Z,13.83
2017-12-24T03:25:31.415Z,13.07
2017-12-24T03:26:32.720Z,16.30
2017-12-24T03:27:35.107Z,13.52
2017-12-24T03:28:36.401Z,13.70
2017-12-24T03:29:37.715Z,12.50
2017-12-24T03:30:39.006Z,13.80
2017-12-24T03:31:40.312Z,12.45
2017-12-24T03:32:41.904Z,14.10
2017-12-24T03:33:43.244Z,14.00
2017-12-24T03:34:44.532Z,14.40
2017-12-24T03:35:46.588Z,15.20
2017-12-24T03:36:48.624Z,13.93
2017-12-24T03:37:51.054Z,13.00
2017-12-24T03:38:52.353Z,12.83
2017-12-24T03:39:54.418Z,12.67
2017-12-24T03:40:56.466Z,13.10
2017-12-24T03:41:58.492Z,12.20
2017-12-24T03:43:00.092Z,14.00
2017-12-24T03:44:01.418Z,13.68
2017-12-24T03:45:02.816Z,13.87
2017-12-24T03:46:04.120Z,14.63
2017-12-24T03:47:05.433Z,13.50
2017-12-24T03:48:07.904Z,13.17
2017-12-24T03:49:09.197Z,13.83
2017-12-24T03:50:11.240Z,14.33
2017-12-24T03:51:12.572Z,15.07
2017-12-24T03:52:13.884Z,16.00
2017-12-24T03:53:15.469Z,15.23
2017-12-24T03:54:17.528Z,15.50
2017-12-24T03:55:20.556Z,15.53
2017-12-24T03:56:21.854Z,15.97
2017-12-24T03:57:23.144Z,15.77
2017-12-24T04:08:09.724Z,16.00
2017-12-24T04:09:11.799Z,13.87
2017-12-24T04:10:13.100Z,15.87
2017-12-24T04:11:14.403Z,16.73
2017-12-24T04:12:15.712Z,15.37
2017-12-24T04:13:17.295Z,15.03
2017-12-24T04:14:19.402Z,14.93
2017-12-24T04:15:20.709Z,14.13
2017-12-24T04:16:22.012Z,14.57
2017-12-24T04:17:24.085Z,13.77
2017-12-24T04:18:25.640Z,14.80
2017-12-24T04:19:26.932Z,15.13
2017-12-24T04:20:28.234Z,14.83
2017-12-24T04:21:30.268Z,13.60
2017-12-24T04:22:31.584Z,13.70
2017-12-24T04:23:33.152Z,14.27
2017-12-24T04:24:34.459Z,13.50
2017-12-24T04:25:35.764Z,14.10
2017-12-24T04:26:37.038Z,14.33
2017-12-24T04:27:38.340Z,13.50
2017-12-24T04:28:39.988Z,12.90
2017-12-24T04:29:41.286Z,12.93
2017-12-24T04:30:43.343Z,14.47
2017-12-24T04:31:45.384Z,14.40
2017-12-24T04:32:46.717Z,13.60
2017-12-24T04:33:48.310Z,13.80
2017-12-24T04:34:49.603Z,13.37
2017-12-24T04:35:51.628Z,13.00
2017-12-24T04:36:52.912Z,13.00
2017-12-24T04:37:54.944Z,13.60
2017-12-24T04:38:56.294Z,13.30
2017-12-24T04:39:58.355Z,13.20
2017-12-24T04:41:00.384Z,13.67
2017-12-24T04:42:01.700Z,13.50
2017-12-24T04:43:03.745Z,13.90
2017-12-24T04:44:05.322Z,13.80
2017-12-24T04:45:07.396Z,13.50
2017-12-24T04:46:09.440Z,14.30
2017-12-24T04:47:11.484Z,15.57
2017-12-24T04:48:12.797Z,15.55
2017-12-24T04:49:14.405Z,14.85
2017-12-24T04:50:15.699Z,13.37
2017-12-24T04:51:17.003Z,13.87
2017-12-24T04:52:18.324Z,13.60
2017-12-24T04:53:19.639Z,14.03
2017-12-24T04:54:21.236Z,13.33
2017-12-24T04:55:22.546Z,13.07
2017-12-24T04:56:23.868Z,13.67
2017-12-24T04:57:25.180Z,12.83
2017-12-24T04:58:27.225Z,13.90
2017-12-24T04:59:28.816Z,13.13
2017-12-24T05:00:30.152Z,13.97
2017-12-24T05:01:31.456Z,13.70
2017-12-24T05:02:33.504Z,14.23
2017-12-24T05:03:35.532Z,15.33
2017-12-24T05:04:37.111Z,15.30
2017-12-24T05:05:39.140Z,14.80
2017-12-24T05:06:40.435Z,14.37
2017-12-24T05:07:41.730Z,14.67
2017-12-24T05:08:43.764Z,15.10
2017-12-24T05:09:45.368Z,14.17
2017-12-24T05:10:46.677Z,14.53
2017-12-24T05:11:47.968Z,13.97
2017-12-24T05:12:49.284Z,14.90
2017-12-24T05:13:50.584Z,15.20
2017-12-24T05:14:52.160Z,15.37
2017-12-24T05:15:53.448Z,15.20
2017-12-24T05:17:02.460Z,14.90
2017-12-24T05:18:04.492Z,14.03
2017-12-24T05:19:05.779Z,13.07
2017-12-24T05:20:07.360Z,12.63
2017-12-24T05:21:08.661Z,12.90
2017-12-24T05:22:09.963Z,13.23
2017-12-24T05:23:12.037Z,13.23
2017-12-24T05:24:14.073Z,14.47
2017-12-24T05:25:15.424Z,12.10
2017-12-24T05:26:17.461Z,12.30
2017-12-24T05:27:18.794Z,11.43
2017-12-24T05:28:20.104Z,12.13
2017-12-24T05:29:21.416Z,11.97
2017-12-24T05:30:22.996Z,11.37
2017-12-24T05:31:24.332Z,11.80
2017-12-24T05:32:25.636Z,12.23
2017-12-24T05:33:26.940Z,12.67
2017-12-24T05:34:29.000Z,11.87
2017-12-24T05:35:31.054Z,13.17
2017-12-24T05:36:33.114Z,11.37
2017-12-24T05:37:34.455Z,11.50
2017-12-24T05:38:35.745Z,11.40
2017-12-24T05:39:37.063Z,13.10
2017-12-24T05:40:38.392Z,11.90
2017-12-24T05:41:39.685Z,12.37
2017-12-24T05:42:41.018Z,12.37
2017-12-24T05:43:43.065Z,14.03
2017-12-24T05:44:44.374Z,11.73
2017-12-24T05:45:45.732Z,12.10
2017-12-24T05:46:47.032Z,13.93
2017-12-24T05:47:48.384Z,13.03
2017-12-24T05:48:50.428Z,12.23
2017-12-24T05:49:51.732Z,11.97
2017-12-24T05:50:53.295Z,10.80
2017-12-24T05:51:54.602Z,9.87
2017-12-24T05:52:55.924Z,9.83
2017-12-24T05:53:57.967Z,10.03
2017-12-24T05:54:59.259Z,9.97
2017-12-24T05:56:00.845Z,10.37
2017-12-24T05:57:02.152Z,11.20
2017-12-24T05:58:04.212Z,12.07
2017-12-24T05:59:06.272Z,10.73
2017-12-24T06:00:07.607Z,10.53
2017-12-24T06:01:16.020Z,10.53
2017-12-24T06:02:17.316Z,10.77
2017-12-24T06:03:18.631Z,9.40
2017-12-24T06:04:20.724Z,8.70
2017-12-24T06:05:22.020Z,8.17
2017-12-24T06:06:24.087Z,9.07
2017-12-24T06:07:25.399Z,8.33
2017-12-24T06:08:27.456Z,8.37
2017-12-24T06:09:29.514Z,7.70
2017-12-24T06:10:31.552Z,7.67
2017-12-24T06:11:32.861Z,6.63
2017-12-24T06:12:34.504Z,6.37
2017-12-24T06:13:35.810Z,6.10
2017-12-24T06:14:37.126Z,6.00
2017-12-24T06:15:39.174Z,6.17
2017-12-24T06:16:41.496Z,5.73
2017-12-24T06:17:43.584Z,6.17
2017-12-24T06:18:45.612Z,5.43
2017-12-24T06:19:46.898Z,5.53
2017-12-24T06:20:48.220Z,5.67
2017-12-24T06:21:50.291Z,6.73
2017-12-24T06:22:52.565Z,6.13
2017-12-24T06:23:53.870Z,5.70
2017-12-24T06:24:55.906Z,6.83
2017-12-24T06:25:57.212Z,6.70
2017-12-24T06:26:58.583Z,7.07
2017-12-24T06:28:00.661Z,8.07
2017-12-24T06:29:02.708Z,8.80
2017-12-24T06:30:04.734Z,8.07
2017-12-24T06:31:06.045Z,8.97
2017-12-24T06:32:07.386Z,9.60
2017-12-24T06:33:09.443Z,9.40
2017-12-24T06:34:11.476Z,8.77
2017-12-24T06:35:12.794Z,9.27
2017-12-24T06:36:14.197Z,9.07
2017-12-24T06:37:15.500Z,8.40
2017-12-24T06:38:16.832Z,8.70
2017-12-24T06:39:18.135Z,8.87
2017-12-24T06:40:20.178Z,10.13
2017-12-24T06:41:22.216Z,10.00
2017-12-24T06:42:23.560Z,9.30
2017-12-24T06:43:25.597Z,8.40
2017-12-24T06:44:26.904Z,8.53
2017-12-24T06:45:28.197Z,7.87
2017-12-24T06:46:30.256Z,8.23
2017-12-24T06:47:32.558Z,8.77
2017-12-24T06:48:33.851Z,8.97
2017-12-24T06:49:35.888Z,9.90
2017-12-24T06:50:37.178Z,8.63
2017-12-24T06:51:38.468Z,7.97
2017-12-24T06:52:40.862Z,8.27
2017-12-24T06:53:42.152Z,8.00
2017-12-24T06:54:43.454Z,7.77
2017-12-24T06:55:44.744Z,7.50
2017-12-24T06:56:46.852Z,8.73
2017-12-24T06:57:48.160Z,8.33
2017-12-24T06:58:49.462Z,10.00
2017-12-24T06:59:50.756Z,9.03
2017-12-24T07:00:52.056Z,9.47
2017-12-24T07:01:53.356Z,8.93
2017-12-24T07:02:54.943Z,9.10
2017-12-24T07:03:56.244Z,9.20
2017-12-24T07:04:57.530Z,9.80
2017-12-24T07:05:58.832Z,10.10
2017-12-24T07:07:00.854Z,9.20
2017-12-24T07:08:02.916Z,9.03
2017-12-24T07:09:04.224Z,9.60
2017-12-24T07:10:05.518Z,9.60
2017-12-24T07:11:07.631Z,9.90
2017-12-24T07:12:08.924Z,7.97
2017-12-24T07:13:10.252Z,9.10
2017-12-24T07:14:13.158Z,7.93
2017-12-24T07:15:14.461Z,8.53
2017-12-24T07:16:16.534Z,9.40
2017-12-24T07:17:17.861Z,8.10
2017-12-24T07:18:19.201Z,7.17
2017-12-24T07:19:20.500Z,8.83
2017-12-24T07:20:21.795Z,8.03
2017-12-24T07:21:23.111Z,8.13
2017-12-24T07:22:24.421Z,8.30
2017-12-24T07:23:26.764Z,8.57
2017-12-24T07:24:28.095Z,8.77
2017-12-24T07:25:29.399Z,7.93
2017-12-24T07:26:30.704Z,7.80
2017-12-24T07:27:32.760Z,8.43
2017-12-24T07:28:35.043Z,5.70
2017-12-24T07:29:36.328Z,7.50
2017-12-24T07:30:37.624Z,7.33
2017-12-24T07:31:38.919Z,6.07
2017-12-24T07:32:40.964Z,5.63
2017-12-24T07:33:42.304Z,5.80
2017-12-24T07:34:44.348Z,5.97
2017-12-24T07:35:45.671Z,5.70
2017-12-24T07:36:46.974Z,6.53
2017-12-24T07:37:48.267Z,6.40
2017-12-24T07:38:50.597Z,5.80
2017-12-24T07:39:51.907Z,6.23
2017-12-24T07:40:53.224Z,5.83
2017-12-24T07:41:54.530Z,5.30
2017-12-24T07:42:55.824Z,5.73
2017-12-24T07:43:57.141Z,5.00
2017-12-24T07:44:58.444Z,4.50
2017-12-24T07:45:59.764Z,4.70
2017-12-24T07:47:01.144Z,4.50
2017-12-24T07:48:02.429Z,4.53
2017-12-24T07:49:03.736Z,4.87
2017-12-24T07:50:05.032Z,5.10
2017-12-24T07:51:07.079Z,5.40
2017-12-24T07:52:08.409Z,5.33
2017-12-24T07:53:09.721Z,5.43
2017-12-24T07:54:11.295Z,4.73
2017-12-24T07:55:12.586Z,4.97
2017-12-24T07:56:13.889Z,5.27
2017-12-24T07:57:15.956Z,5.60
2017-12-24T07:58:17.266Z,5.90
2017-12-24T07:59:19.329Z,5.17
2017-12-24T08:00:21.387Z,5.37
2017-12-24T08:01:23.444Z,5.60
2017-12-24T08:02:25.499Z,5.60
2017-12-24T08:03:26.793Z,5.90
2017-12-24T08:04:28.374Z,5.60
2017-12-24T08:05:30.436Z,5.93
2017-12-24T08:06:31.744Z,6.83
2017-12-24T08:07:33.036Z,6.53
2017-12-24T08:08:34.341Z,6.97
2017-12-24T08:09:36.661Z,6.43
2017-12-24T08:10:37.957Z,6.27
2017-12-24T08:11:39.257Z,7.77
2017-12-24T08:12:40.588Z,7.37
2017-12-24T08:13:41.900Z,7.80
2017-12-24T08:14:43.216Z,8.50
2017-12-24T08:15:44.547Z,8.10
2017-12-24T08:16:45.854Z,8.10
2017-12-24T08:17:47.924Z,8.93
2017-12-24T08:18:49.223Z,8.17
2017-12-24T08:19:50.544Z,8.30
2017-12-24T08:20:51.856Z,8.03
2017-12-24T08:21:53.201Z,8.83
2017-12-24T08:22:55.243Z,8.33
2017-12-24T08:23:56.578Z,9.20
2017-12-24T08:24:57.915Z,12.10
2017-12-24T08:25:59.219Z,9.50
2017-12-24T08:27:01.280Z,10.87
2017-12-24T08:28:03.309Z,10.13
2017-12-24T08:29:04.636Z,10.23
2017-12-24T08:30:05.955Z,10.10
2017-12-24T08:31:07.276Z,8.63
2017-12-24T08:32:08.605Z,11.07
2017-12-24T08:33:09.915Z,8.73
2017-12-24T08:34:11.968Z,11.83
2017-12-24T08:35:14.280Z,8.20
2017-12-24T08:36:15.591Z,9.60
2017-12-24T08:37:16.912Z,9.67
2017-12-24T08:38:18.216Z,10.03
2017-12-24T08:40:27.203Z,8.20
2017-12-24T08:41:28.521Z,8.97
2017-12-24T08:42:29.836Z,8.57
2017-12-24T08:43:31.871Z,8.23
2017-12-24T08:44:33.179Z,9.57
2017-12-24T08:45:34.752Z,8.97
2017-12-24T08:46:36.776Z,8.70
2017-12-24T08:47:38.100Z,8.67
2017-12-24T08:48:39.397Z,9.80
2017-12-24T08:49:41.425Z,8.10
2017-12-24T08:50:42.736Z,7.60
2017-12-24T08:51:44.050Z,7.50
2017-12-24T08:52:45.363Z,7.63
2017-12-24T08:53:47.440Z,6.83
2017-12-24T08:54:48.757Z,6.50
2017-12-24T08:55:50.808Z,7.93
2017-12-24T08:56:52.834Z,6.90
2017-12-24T08:57:54.161Z,5.87
2017-12-24T08:58:55.466Z,6.93
2017-12-24T08:59:56.743Z,7.80
2017-12-24T09:00:58.075Z,7.57
2017-12-24T09:01:59.372Z,7.45
2017-12-24T09:03:00.692Z,7.45
2017-12-24T09:04:01.995Z,7.47
2017-12-24T09:05:03.297Z,8.23
2017-12-24T09:06:04.621Z,7.75
2017-12-24T09:07:05.984Z,7.22
2017-12-24T09:08:07.311Z,7.18
2017-12-24T09:09:08.650Z,6.70
2017-12-24T09:10:10.696Z,7.18
2017-12-24T09:11:12.017Z,8.07
2017-12-24T09:12:13.385Z,7.47
2017-12-24T09:13:14.733Z,6.93
2017-12-24T09:14:16.075Z,7.07
2017-12-24T09:15:18.171Z,6.40
2017-12-24T09:16:19.786Z,6.43
2017-12-24T09:17:21.833Z,6.55
2017-12-24T09:18:23.184Z,6.70
2017-12-24T09:19:25.257Z,5.90
2017-12-24T09:20:26.567Z,6.22
2017-12-24T09:21:27.983Z,5.68
2017-12-24T09:22:30.383Z,5.82
2017-12-24T09:23:32.652Z,5.15
2017-12-24T09:24:34.151Z,5.40
2017-12-24T09:25:35.722Z,5.15
2017-12-24T09:26:41.232Z,4.60
2017-12-24T09:27:43.383Z,4.70
2017-12-24T09:28:44.873Z,4.90
2017-12-24T09:29:46.294Z,5.05
2017-12-24T09:30:49.321Z,4.87
2017-12-24T09:31:51.050Z,4.32
2017-12-24T09:32:52.504Z,3.70
2017-12-24T09:33:53.987Z,3.80
2017-12-24T09:34:55.396Z,3.37
2017-12-24T09:35:56.766Z,3.65
2017-12-24T09:36:58.268Z,3.62
2017-12-24T09:37:59.660Z,4.40
2017-12-24T09:39:01.889Z,4.05
2017-12-24T09:40:03.330Z,3.53
2017-12-24T09:41:04.696Z,3.85
2017-12-24T09:42:07.113Z,4.05
2017-12-24T09:43:08.559Z,4.32
2017-12-24T09:44:10.019Z,3.95
2017-12-24T09:45:12.231Z,4.60
2017-12-24T09:46:13.696Z,4.70
2017-12-24T09:47:15.215Z,3.95
2017-12-24T09:48:16.791Z,4.30
2017-12-24T09:49:18.148Z,3.47
2017-12-24T09:50:20.821Z,4.00
2017-12-24T09:51:22.321Z,3.72
2017-12-24T09:52:23.736Z,3.55
2017-12-24T09:53:25.148Z,4.10
2017-12-24T09:54:27.297Z,4.30
2017-12-24T09:55:29.457Z,4.62
2017-12-24T09:56:31.775Z,4.80
2017-12-24T09:57:33.337Z,5.40
2017-12-24T09:58:35.685Z,5.15
2017-12-24T09:59:37.095Z,5.87
2017-12-24T10:00:38.669Z,4.90
2017-12-24T10:01:40.237Z,6.53
2017-12-24T10:02:41.736Z,8.35
2017-12-24T10:03:43.345Z,9.40
2017-12-24T10:04:45.450Z,10.20
2017-12-24T10:05:47.062Z,7.60
2017-12-24T10:06:48.530Z,5.22
2017-12-24T10:07:50.215Z,4.07
2017-12-24T10:08:51.618Z,4.00
2017-12-24T10:09:53.059Z,3.65
2017-12-24T10:10:54.500Z,3.87
2017-12-24T10:11:55.912Z,3.90
2017-12-24T10:12:57.350Z,3.85
2017-12-24T10:13:58.862Z,3.50
2017-12-24T10:15:00.306Z,4.35
2017-12-24T10:16:01.739Z,4.27
2017-12-24T10:17:03.880Z,4.43
2017-12-24T10:18:06.080Z,4.60
2017-12-24T10:19:07.625Z,3.83
2017-12-24T10:20:09.096Z,5.53
2017-12-24T10:21:10.523Z,5.00
2017-12-24T10:22:11.943Z,5.03
2017-12-24T10:23:13.728Z,5.10
2017-12-24T10:24:15.217Z,6.28
2017-12-24T10:25:16.605Z,5.03
2017-12-24T10:26:18.118Z,5.35
2017-12-24T10:27:19.630Z,5.43
2017-12-24T10:28:21.017Z,4.80
2017-12-24T10:29:22.542Z,4.68
2017-12-24T10:30:23.976Z,4.95
2017-12-24T10:31:25.353Z,5.43
2017-12-24T10:32:26.903Z,4.68
2017-12-24T10:33:28.363Z,4.85
2017-12-24T10:35:37.854Z,4.50
2017-12-24T10:36:39.248Z,4.68
2017-12-24T10:37:40.689Z,4.68
2017-12-24T10:38:42.313Z,4.18
2017-12-24T10:39:44.366Z,4.32
2017-12-24T10:40:46.407Z,4.67
2017-12-24T10:41:47.684Z,4.18
2017-12-24T10:42:48.971Z,4.78
2017-12-24T10:43:50.265Z,5.20
2017-12-24T10:44:51.561Z,4.20
2017-12-24T10:45:53.568Z,4.50
2017-12-24T10:46:54.870Z,4.70
2017-12-24T10:47:56.176Z,4.60
2017-12-24T10:48:57.815Z,5.00
2017-12-24T10:49:59.137Z,4.85
2017-12-24T10:51:00.445Z,5.20
2017-12-24T10:52:01.757Z,5.10
2017-12-24T10:53:03.808Z,5.18
2017-12-24T10:54:05.846Z,5.20
2017-12-24T10:55:07.876Z,5.12
2017-12-24T10:56:09.156Z,4.93
2017-12-24T10:57:10.461Z,4.95
2017-12-24T10:58:11.744Z,5.10
2017-12-24T10:59:13.045Z,4.53
2017-12-24T11:00:15.080Z,5.00
2017-12-24T11:01:16.405Z,4.55
2017-12-24T11:02:17.716Z,4.43
2017-12-24T11:03:19.017Z,4.72
2017-12-24T11:04:21.333Z,4.05
2017-12-24T11:05:22.616Z,4.30
2017-12-24T11:06:24.661Z,3.92
2017-12-24T11:07:26.706Z,4.28
2017-12-24T11:08:28.005Z,3.95
2017-12-24T11:09:29.319Z,4.30
2017-12-24T11:10:30.595Z,4.05
2017-12-24T11:11:31.901Z,4.33
2017-12-24T11:12:33.175Z,4.13
2017-12-24T11:13:34.475Z,4.68
2017-12-24T11:14:35.789Z,5.07
2017-12-24T11:15:37.647Z,4.50
2017-12-24T11:16:38.975Z,4.75
2017-12-24T11:17:40.292Z,4.82
2017-12-24T11:18:42.320Z,4.20
2017-12-24T11:19:43.646Z,4.60
2017-12-24T11:20:44.948Z,4.90
2017-12-24T11:21:46.277Z,4.78
2017-12-24T11:22:47.560Z,4.87
2017-12-24T11:23:48.867Z,4.45
2017-12-24T11:24:50.434Z,4.20
2017-12-24T11:25:51.746Z,4.40
2017-12-24T11:26:53.023Z,4.12
2017-12-24T11:27:54.336Z,4.28
2017-12-24T11:28:55.636Z,5.55
2017-12-24T11:29:57.220Z,4.83
2017-12-24T11:30:58.506Z,5.65
2017-12-24T11:32:00.535Z,5.25
2017-12-24T11:33:01.823Z,5.50
2017-12-24T11:34:03.120Z,4.83
2017-12-24T11:35:05.170Z,5.18
2017-12-24T11:36:06.492Z,5.50
2017-12-24T11:37:07.794Z,5.00
2017-12-24T11:38:09.099Z,4.97
2017-12-24T11:39:11.131Z,5.43
2017-12-24T11:40:12.718Z,4.70
2017-12-24T11:41:14.012Z,5.70
2017-12-24T11:42:15.329Z,5.77
2017-12-24T11:43:16.651Z,5.30
2017-12-24T11:44:17.955Z,6.18
2017-12-24T11:45:19.309Z,5.60
2017-12-24T11:46:20.596Z,5.22
2017-12-24T11:47:21.892Z,5.47
2017-12-24T11:48:23.198Z,5.90
2017-12-24T11:49:24.562Z,6.40
2017-12-24T11:50:25.891Z,6.10
2017-12-24T11:51:27.185Z,6.07
2017-12-24T11:52:29.214Z,6.07
2017-12-24T11:53:30.519Z,6.10
2017-12-24T11:54:31.803Z,6.12
2017-12-24T11:55:33.410Z,6.60
2017-12-24T11:56:34.715Z,6.03
2017-12-24T11:57:36.018Z,6.37
2017-12-24T11:58:37.303Z,6.68
2017-12-24T11:59:38.660Z,8.13
2017-12-24T12:00:40.240Z,9.50
2017-12-24T12:01:41.523Z,8.50
2017-12-24T12:02:42.825Z,7.03
2017-12-24T12:03:44.896Z,6.85
2017-12-24T12:04:46.191Z,6.85
2017-12-24T12:05:47.512Z,6.60
2017-12-24T12:06:48.861Z,6.13
2017-12-24T12:07:50.162Z,6.85
2017-12-24T12:08:52.204Z,5.57
2017-12-24T12:09:53.538Z,6.17
2017-12-24T12:10:54.863Z,5.47
2017-12-24T12:11:56.902Z,5.85
2017-12-24T12:12:58.956Z,5.35
2017-12-24T12:14:01.007Z,5.80
2017-12-24T12:15:02.324Z,5.37
2017-12-24T12:16:03.905Z,5.97
2017-12-24T12:17:05.961Z,5.40
2017-12-24T12:18:08.013Z,5.73
2017-12-24T12:19:10.087Z,5.85
2017-12-24T12:20:11.405Z,7.07
2017-12-24T12:21:13.726Z,7.45
2017-12-24T12:22:15.061Z,7.00
2017-12-24T12:23:16.373Z,6.70
2017-12-24T12:24:17.685Z,6.93
2017-12-24T12:25:18.994Z,6.28
2017-12-24T12:26:24.378Z,6.27
2017-12-24T12:27:25.681Z,6.18
2017-12-24T12:28:27.750Z,6.50
2017-12-24T12:29:29.099Z,6.07
2017-12-24T12:30:30.432Z,6.93
2017-12-24T12:31:31.738Z,7.30
2017-12-24T12:32:33.757Z,7.90
2017-12-24T12:33:35.067Z,6.90
2017-12-24T12:34:36.387Z,6.50
2017-12-24T12:35:37.701Z,6.80
2017-12-24T12:36:39.801Z,7.20
2017-12-24T12:37:41.127Z,7.10
2017-12-24T12:38:42.417Z,6.13
2017-12-24T12:39:43.737Z,6.17
2017-12-24T12:40:45.036Z,6.43
2017-12-24T12:41:46.616Z,6.50
2017-12-24T12:42:47.935Z,6.50
2017-12-24T12:43:49.231Z,5.72
2017-12-24T12:44:50.537Z,6.60
2017-12-24T12:45:51.827Z,5.60
2017-12-24T12:46:53.614Z,5.50
2017-12-24T12:47:54.933Z,6.10
2017-12-24T12:48:56.229Z,5.60
2017-12-24T12:49:57.800Z,5.40
2017-12-24T12:50:59.100Z,6.03
2017-12-24T12:52:01.157Z,5.70
2017-12-24T12:53:03.220Z,6.33
2017-12-24T12:54:04.526Z,6.23
2017-12-24T12:55:06.579Z,6.30
2017-12-24T12:56:07.868Z,5.83
2017-12-24T12:57:09.201Z,6.30
2017-12-24T12:58:10.485Z,5.37
2017-12-24T12:59:11.778Z,5.30
2017-12-24T13:00:13.091Z,5.53
2017-12-24T13:01:14.399Z,5.45
2017-12-24T13:02:16.447Z,5.30
2017-12-24T13:03:17.756Z,5.47
2017-12-24T13:04:19.061Z,5.50
2017-12-24T13:05:20.351Z,5.80
2017-12-24T13:06:21.642Z,5.93
2017-12-24T13:07:23.253Z,6.10
2017-12-24T13:08:25.337Z,5.70
2017-12-24T13:09:26.730Z,5.70
2017-12-24T13:10:28.071Z,5.57
2017-12-24T13:11:29.357Z,5.50
2017-12-24T13:12:30.679Z,5.97
2017-12-24T13:13:32.011Z,5.30
2017-12-24T13:14:33.325Z,5.40
2017-12-24T13:15:35.382Z,5.53
2017-12-24T13:16:37.423Z,5.93
2017-12-24T13:17:39.025Z,5.73
2017-12-24T13:18:40.323Z,5.80
2017-12-24T13:19:42.391Z,5.80
2017-12-24T13:20:43.693Z,5.40
2017-12-24T13:21:44.997Z,5.85
2017-12-24T13:22:46.357Z,5.80
2017-12-24T13:23:47.679Z,6.17
2017-12-24T13:24:48.968Z,5.43
2017-12-24T13:25:50.255Z,4.87
2017-12-24T13:26:51.544Z,5.00
2017-12-24T13:27:53.121Z,5.13
2017-12-24T13:28:54.421Z,5.00
2017-12-24T13:29:55.728Z,5.00
2017-12-24T13:30:57.047Z,5.00
2017-12-24T13:31:58.400Z,5.37
2017-12-24T13:33:00.519Z,4.60
2017-12-24T13:34:02.087Z,5.23
2017-12-24T13:35:03.819Z,5.57
2017-12-24T13:36:05.481Z,5.63
2017-12-24T13:37:07.226Z,5.72
2017-12-24T13:38:09.951Z,5.67
2017-12-24T13:39:11.821Z,5.40
2017-12-24T13:40:13.793Z,5.40
2017-12-24T13:41:15.102Z,5.60
2017-12-24T13:42:16.417Z,5.37
2017-12-24T13:43:18.000Z,5.72
2017-12-24T13:44:19.321Z,5.60
2017-12-24T13:45:20.604Z,6.28
2017-12-24T13:46:21.909Z,5.87
2017-12-24T13:47:23.199Z,5.93
2017-12-24T13:48:24.551Z,5.80
2017-12-24T13:49:25.857Z,5.55
2017-12-24T13:50:27.937Z,5.60
2017-12-24T13:51:29.253Z,4.70
2017-12-24T13:52:31.307Z,5.37
2017-12-24T13:53:33.396Z,4.93
2017-12-24T13:54:34.705Z,5.50